Time;durP1;ratioP1;P1;durP2;ratioP2;P2;SDS_P1;SDS_P2;PMS_P1;PMS_P2;Temp;Humidity;BMP_temperature;BMP_pressure;BME280_temperature;BME280_humidity;BME280_pressure;Samples;Min_cycle;Max_cycle;Signal;HPM_P1;HPM_P2
2023/09/02 00:04:14;;;;;;;2.22;1.83;;;12.50;99.90;;;;;;4992979;28;20244;-66
2023/09/02 00:06:43;;;;;;;1.88;1.75;;;12.40;99.90;;;;;;4987154;28;20203;-66
2023/09/02 00:09:09;;;;;;;2.45;2.08;;;12.40;99.90;;;;;;5003172;28;20244;-66
2023/09/02 00:11:36;;;;;;;2.17;1.98;;;12.40;99.90;;;;;;4957832;28;20222;-66
2023/09/02 00:14:03;;;;;;;2.20;2.00;;;12.40;99.90;;;;;;4988706;28;20210;-66
2023/09/02 00:16:30;;;;;;;2.95;2.50;;;12.40;99.90;;;;;;4980708;28;20428;-66
2023/09/02 00:18:56;;;;;;;3.47;3.17;;;12.40;99.90;;;;;;4978129;28;20305;-66
2023/09/02 00:21:24;;;;;;;3.30;2.97;;;12.70;99.90;;;;;;4987372;28;20217;-66
2023/09/02 00:24:02;;;;;;;2.47;2.28;;;12.30;99.90;;;;;;4995119;28;20234;-66
2023/09/02 00:26:30;;;;;;;5.35;2.60;;;12.30;99.90;;;;;;4964589;28;20558;-66
2023/09/02 00:28:56;;;;;;;2.88;2.67;;;12.30;99.90;;;;;;4997336;28;20742;-66
2023/09/02 00:31:23;;;;;;;4.75;4.25;;;12.20;99.90;;;;;;4993343;28;20206;-66
2023/09/02 00:33:50;;;;;;;2.78;2.55;;;12.20;99.90;;;;;;4981335;28;20640;-66
2023/09/02 00:36:17;;;;;;;5.35;4.85;;;12.10;99.90;;;;;;4988115;28;20341;-66
2023/09/02 00:38:43;;;;;;;6.05;4.50;;;12.20;99.90;;;;;;4997058;28;20194;-66
2023/09/02 00:41:14;;;;;;;6.75;5.15;;;12.20;99.90;;;;;;4966766;28;20210;-66
2023/09/02 00:43:42;;;;;;;5.95;4.70;;;12.20;99.90;;;;;;4995316;28;20230;-66
2023/09/02 00:46:10;;;;;;;4.80;4.30;;;12.20;99.90;;;;;;5001407;28;20199;-66
2023/09/02 00:48:37;;;;;;;4.97;4.57;;;12.20;99.90;;;;;;4978107;28;20943;-66
2023/09/02 00:51:04;;;;;;;4.50;4.10;;;12.10;99.90;;;;;;4975989;28;20213;-66
2023/09/02 00:53:30;;;;;;;4.40;4.00;;;12.10;99.90;;;;;;5002740;28;20529;-66
2023/09/02 00:55:57;;;;;;;6.20;4.38;;;12.10;99.90;;;;;;5000470;28;20924;-66
2023/09/02 00:58:25;;;;;;;3.60;3.30;;;12.10;99.90;;;;;;4964539;28;20597;-66
2023/09/02 01:00:53;;;;;;;2.92;2.03;;;12.10;99.90;;;;;;4996861;28;21088;-66
2023/09/02 01:03:20;;;;;;;4.05;1.38;;;12.00;99.90;;;;;;4991591;28;20205;-66
2023/09/02 01:05:46;;;;;;;1.88;1.13;;;11.90;99.90;;;;;;4984274;28;20637;-66
2023/09/02 01:08:18;;;;;;;0.95;0.95;;;11.90;99.90;;;;;;4984297;28;20235;-65
2023/09/02 01:10:45;;;;;;;1.63;1.40;;;11.90;99.90;;;;;;4994080;28;20447;-66
2023/09/02 01:13:13;;;;;;;1.05;1.02;;;11.80;99.90;;;;;;4966622;28;20202;-66
2023/09/02 01:15:41;;;;;;;2.92;1.42;;;11.00;99.90;;;;;;4988733;28;20676;-66
2023/09/02 01:18:08;;;;;;;2.30;1.45;;;11.70;99.90;;;;;;4990650;28;20217;-66
2023/09/02 01:20:54;;;;;;;2.20;1.70;;;11.70;99.90;;;;;;4987946;28;20261;-66
2023/09/02 01:23:36;;;;;;;2.70;1.70;;;11.80;99.90;;;;;;4990341;28;20198;-66
2023/09/02 01:26:24;;;;;;;1.52;1.40;;;11.80;99.90;;;;;;5000180;28;20202;-66
2023/09/02 01:28:56;;;;;;;1.63;1.30;;;12.00;99.90;;;;;;4958618;28;20906;-66
2023/09/02 01:31:25;;;;;;;1.50;1.40;;;11.90;99.90;;;;;;4988579;28;20210;-66
2023/09/02 01:33:54;;;;;;;1.98;1.40;;;11.80;99.90;;;;;;4980033;28;20427;-66
2023/09/02 01:36:23;;;;;;;1.80;1.70;;;11.70;99.90;;;;;;4988392;28;20218;-66
2023/09/02 01:38:52;;;;;;;1.55;1.40;;;11.80;99.90;;;;;;4980780;28;20221;-66
2023/09/02 01:41:21;;;;;;;4.68;1.90;;;11.80;99.90;;;;;;4990745;28;20203;-66
2023/09/02 01:43:49;;;;;;;1.70;1.60;;;11.80;99.90;;;;;;4958173;28;20427;-66
2023/09/02 01:46:18;;;;;;;3.03;1.80;;;11.90;99.90;;;;;;4996065;28;20201;-66
2023/09/02 01:48:46;;;;;;;1.88;1.48;;;11.80;99.90;;;;;;4970738;28;20420;-66
2023/09/02 01:51:14;;;;;;;2.10;1.90;;;11.80;99.90;;;;;;4997117;28;20210;-66
2023/09/02 01:53:41;;;;;;;2.33;1.38;;;11.70;99.90;;;;;;4966475;28;20210;-66
2023/09/02 01:56:08;;;;;;;1.75;1.65;;;11.70;99.90;;;;;;4996791;28;20209;-66
2023/09/02 01:58:35;;;;;;;1.65;1.52;;;11.60;99.90;;;;;;4992233;28;20201;-66
2023/09/02 02:01:02;;;;;;;4.43;1.60;;;11.60;99.90;;;;;;4958652;28;20210;-65
2023/09/02 02:03:36;;;;;;;3.08;1.90;;;11.60;99.90;;;;;;4992205;28;20199;-66
2023/09/02 02:06:06;;;;;;;2.50;1.95;;;11.60;99.90;;;;;;4987865;28;20613;-66
2023/09/02 02:08:44;;;;;;;1.83;1.55;;;11.70;99.90;;;;;;4975059;28;20237;-66
2023/09/02 02:11:12;;;;;;;1.90;1.73;;;11.60;99.90;;;;;;4991391;28;20226;-66
2023/09/02 02:13:39;;;;;;;1.98;1.70;;;11.60;99.90;;;;;;4993351;28;20271;-65
2023/09/02 02:16:06;;;;;;;1.20;1.10;;;11.60;99.90;;;;;;4956187;28;20218;-66
2023/09/02 02:18:34;;;;;;;0.70;0.70;;;11.50;99.90;;;;;;4992078;28;20191;-66
2023/09/02 02:21:04;;;;;;;0.90;0.90;;;11.50;99.90;;;;;;4985369;28;20213;-66
2023/09/02 02:23:31;;;;;;;1.35;1.05;;;11.40;99.90;;;;;;4994899;28;20242;-65
2023/09/02 02:26:01;;;;;;;2.03;1.10;;;11.40;99.90;;;;;;4974787;28;20434;-66
2023/09/02 02:28:28;;;;;;;1.55;1.35;;;11.40;99.90;;;;;;4997157;28;20199;-65
2023/09/02 02:30:55;;;;;;;1.40;1.30;;;11.30;99.90;;;;;;4959074;28;20362;-65
2023/09/02 02:33:22;;;;;;;1.75;1.40;;;11.40;99.90;;;;;;4996652;28;20208;-66
2023/09/02 02:35:50;;;;;;;1.48;1.38;;;11.40;99.90;;;;;;4991521;28;20194;-66
2023/09/02 02:38:17;;;;;;;4.63;1.80;;;11.40;99.90;;;;;;4986457;28;20202;-66
2023/09/02 02:40:44;;;;;;;3.00;1.50;;;11.40;99.90;;;;;;4970543;28;20209;-66
2023/09/02 02:43:11;;;;;;;3.70;1.60;;;11.30;99.90;;;;;;4996024;28;20735;-66
2023/09/02 02:45:37;;;;;;;4.15;1.70;;;11.40;99.90;;;;;;4984870;28;20291;-66
2023/09/02 02:48:05;;;;;;;2.35;1.27;;;11.30;99.90;;;;;;4958158;28;20218;-66
2023/09/02 02:50:35;;;;;;;1.75;1.30;;;11.40;99.90;;;;;;4987363;28;20198;-66
2023/09/02 02:53:05;;;;;;;1.15;1.05;;;11.30;99.90;;;;;;4979691;28;20220;-66
2023/09/02 02:55:32;;;;;;;1.10;1.10;;;11.30;99.90;;;;;;4974335;28;20206;-65
2023/09/02 02:57:59;;;;;;;1.00;1.00;;;13.70;99.90;;;;;;4989973;28;20214;-65
2023/09/02 03:00:26;;;;;;;1.80;1.05;;;10.90;99.90;;;;;;4991990;28;20201;-66
2023/09/02 03:02:53;;;;;;;1.65;0.90;;;10.90;99.90;;;;;;4950054;28;20210;-66
2023/09/02 03:05:20;;;;;;;0.88;0.88;;;10.80;99.90;;;;;;4997435;28;21167;-65
2023/09/02 03:07:47;;;;;;;0.88;0.88;;;10.80;99.90;;;;;;4992695;28;20201;-66
2023/09/02 03:10:16;;;;;;;2.00;1.30;;;10.60;99.90;;;;;;4976242;28;20464;-66
2023/09/02 03:12:43;;;;;;;3.20;1.42;;;10.90;99.90;;;;;;4998760;28;20195;-66
2023/09/02 03:15:10;;;;;;;2.05;1.80;;;10.90;99.90;;;;;;4993941;28;20838;-66
2023/09/02 03:17:37;;;;;;;1.65;1.38;;;10.90;99.90;;;;;;4963857;28;20202;-65
2023/09/02 03:20:05;;;;;;;2.33;1.40;;;10.90;99.90;;;;;;4995808;28;20410;-65
2023/09/02 03:22:31;;;;;;;1.58;1.42;;;10.90;99.90;;;;;;4997892;28;20223;-65
2023/09/02 03:24:58;;;;;;;2.20;2.00;;;11.00;99.90;;;;;;4985757;28;20226;-66
2023/09/02 03:27:26;;;;;;;2.03;1.88;;;11.00;99.90;;;;;;4986155;28;20213;-66
2023/09/02 03:29:53;;;;;;;2.92;2.25;;;11.10;99.90;;;;;;4994170;28;20231;-65
2023/09/02 03:32:20;;;;;;;3.05;2.35;;;11.10;99.90;;;;;;4991236;28;20411;-65
2023/09/02 03:34:46;;;;;;;2.78;1.80;;;11.10;99.90;;;;;;4962538;28;20257;-65
2023/09/02 03:37:13;;;;;;;1.98;1.80;;;11.20;99.90;;;;;;4996041;28;20480;-65
2023/09/02 03:39:40;;;;;;;5.13;1.83;;;11.40;99.90;;;;;;4986936;28;20206;-65
2023/09/02 03:42:07;;;;;;;1.83;1.67;;;11.10;99.90;;;;;;4983521;28;20311;-66
2023/09/02 03:44:35;;;;;;;3.78;2.00;;;11.10;99.90;;;;;;4992061;28;20205;-65
2023/09/02 03:47:03;;;;;;;2.53;1.60;;;11.10;99.90;;;;;;4988628;28;20230;-66
2023/09/02 03:49:29;;;;;;;2.13;1.75;;;11.10;99.90;;;;;;4960661;28;20693;-65
2023/09/02 03:51:56;;;;;;;4.00;1.48;;;10.80;99.90;;;;;;4989346;28;20198;-65
2023/09/02 03:54:23;;;;;;;1.70;1.50;;;11.00;99.90;;;;;;4983320;28;20811;-65
2023/09/02 03:56:50;;;;;;;1.83;1.45;;;10.70;99.90;;;;;;4987050;28;20209;-65
2023/09/02 03:59:19;;;;;;;1.50;1.40;;;10.90;99.90;;;;;;4989251;28;20206;-66
2023/09/02 04:01:47;;;;;;;3.70;1.30;;;10.90;99.90;;;;;;4990020;28;20194;-65
2023/09/02 04:04:14;;;;;;;3.17;1.60;;;10.90;99.90;;;;;;4959724;28;20406;-66
2023/09/02 04:06:40;;;;;;;1.77;1.50;;;10.90;99.90;;;;;;4998405;28;20226;-66
2023/09/02 04:09:08;;;;;;;3.15;1.30;;;10.90;99.90;;;;;;4980552;28;20225;-65
2023/09/02 04:11:34;;;;;;;1.20;1.10;;;10.90;99.90;;;;;;4994173;28;20221;-65
2023/09/02 04:14:02;;;;;;;1.25;1.15;;;10.90;99.90;;;;;;4970156;28;20202;-65
2023/09/02 04:16:29;;;;;;;1.40;1.20;;;10.50;99.90;;;;;;4993672;28;20210;-65
2023/09/02 04:19:02;;;;;;;3.85;1.30;;;11.90;99.90;;;;;;4967906;28;20194;-66
2023/09/02 04:21:29;;;;;;;1.50;1.40;;;10.80;99.90;;;;;;5000877;28;20199;-65
2023/09/02 04:23:56;;;;;;;2.25;1.60;;;10.80;99.90;;;;;;4990716;28;20206;-66
2023/09/02 04:26:23;;;;;;;2.80;1.70;;;10.80;99.90;;;;;;4984430;28;20234;-65
2023/09/02 04:28:50;;;;;;;2.15;1.90;;;10.80;99.90;;;;;;4981835;28;20573;-65
2023/09/02 04:31:17;;;;;;;3.75;1.67;;;10.80;99.90;;;;;;4991449;28;20194;-66
2023/09/02 04:33:44;;;;;;;1.90;1.70;;;;;;;;;;4994229;28;20202;-66
2023/09/02 04:36:12;;;;;;;3.40;1.75;;;10.80;99.90;;;;;;4962925;28;20346;-65
2023/09/02 04:38:39;;;;;;;2.58;1.90;;;10.80;99.90;;;;;;4996239;28;20202;-66
2023/09/02 04:41:06;;;;;;;4.53;2.13;;;10.90;99.90;;;;;;4985417;28;20194;-65
2023/09/02 04:43:33;;;;;;;4.28;2.00;;;10.90;99.90;;;;;;4990307;28;20317;-66
2023/09/02 04:46:02;;;;;;;6.38;2.53;;;10.80;99.90;;;;;;4991934;28;20846;-66
2023/09/02 04:48:29;;;;;;;3.63;2.72;;;10.80;99.90;;;;;;5003948;28;20735;-66
2023/09/02 04:50:56;;;;;;;5.55;2.55;;;10.90;99.90;;;;;;4944584;28;20201;-66
2023/09/02 04:53:24;;;;;;;2.47;2.28;;;10.90;99.90;;;;;;4993976;28;20213;-66
2023/09/02 04:55:52;;;;;;;6.03;3.25;;;11.10;99.90;;;;;;4987815;28;20206;-65
2023/09/02 04:58:20;;;;;;;3.83;3.10;;;11.00;99.90;;;;;;4973978;28;20202;-66
2023/09/02 05:00:47;;;;;;;4.45;3.40;;;11.10;99.90;;;;;;4994263;28;20203;-66
2023/09/02 05:03:13;;;;;;;3.85;2.50;;;11.10;99.90;;;;;;4993609;28;20198;-66
2023/09/02 05:05:41;;;;;;;5.35;3.78;;;11.00;99.90;;;;;;4956458;28;20376;-66
2023/09/02 05:08:08;;;;;;;3.45;3.00;;;11.10;99.90;;;;;;4988787;28;20229;-65
2023/09/02 05:10:36;;;;;;;4.45;3.28;;;11.10;99.90;;;;;;4990282;28;20253;-65
2023/09/02 05:13:03;;;;;;;3.47;2.80;;;11.10;99.90;;;;;;4985898;28;20209;-65
2023/09/02 05:15:30;;;;;;;6.65;2.80;;;11.10;99.90;;;;;;4979999;28;21776;-65
2023/09/02 05:17:58;;;;;;;2.47;2.28;;;11.10;99.90;;;;;;4995908;28;20229;-65
2023/09/02 05:20:24;;;;;;;4.03;2.03;;;11.10;99.90;;;;;;5000265;28;20211;-65
2023/09/02 05:22:51;;;;;;;3.88;1.70;;;11.00;99.90;;;;;;4970957;28;20989;-66
2023/09/02 05:25:19;;;;;;;4.45;1.60;;;11.00;99.90;;;;;;4994629;28;20245;-66
2023/09/02 05:27:48;;;;;;;1.60;1.50;;;11.00;99.90;;;;;;4989534;28;20543;-66
2023/09/02 05:30:15;;;;;;;2.03;1.70;;;10.90;99.90;;;;;;4985985;28;20212;-66
2023/09/02 05:32:42;;;;;;;1.70;1.50;;;11.00;99.90;;;;;;4993021;28;20424;-66
2023/09/02 05:35:09;;;;;;;3.25;1.60;;;11.00;99.90;;;;;;5000651;28;20691;-66
2023/09/02 05:37:36;;;;;;;5.03;1.40;;;11.00;99.90;;;;;;4962541;28;20491;-65
2023/09/02 05:40:03;;;;;;;2.05;1.48;;;11.20;99.90;;;;;;4997430;28;20206;-66
2023/09/02 05:42:29;;;;;;;3.35;1.90;;;11.20;99.90;;;;;;4994028;28;20194;-66
2023/09/02 05:44:58;;;;;;;6.18;1.90;;;11.30;99.90;;;;;;4987148;28;20206;-66
2023/09/02 05:47:25;;;;;;;1.83;1.63;;;11.30;99.90;;;;;;4979547;28;20205;-66
2023/09/02 05:49:52;;;;;;;4.97;2.17;;;11.40;99.90;;;;;;4988431;28;20202;-65
2023/09/02 05:52:19;;;;;;;2.42;2.08;;;11.40;99.90;;;;;;4954802;28;20210;-66
2023/09/02 05:54:46;;;;;;;2.13;1.63;;;11.40;99.90;;;;;;4997171;28;20233;-65
2023/09/02 05:57:12;;;;;;;2.08;1.85;;;11.40;99.90;;;;;;4998161;28;20202;-66
2023/09/02 05:59:39;;;;;;;4.78;1.90;;;11.50;99.90;;;;;;4986410;28;20252;-66
2023/09/02 06:02:07;;;;;;;2.60;1.60;;;11.70;99.90;;;;;;4983017;28;20195;-66
2023/09/02 06:04:34;;;;;;;1.88;1.65;;;11.60;99.90;;;;;;4999114;28;20229;-66
2023/09/02 06:07:01;;;;;;;1.92;1.73;;;11.70;99.90;;;;;;5000735;28;20242;-66
2023/09/02 06:09:29;;;;;;;4.55;1.88;;;11.70;99.90;;;;;;4959948;28;20438;-65
2023/09/02 06:11:56;;;;;;;2.75;2.22;;;11.70;99.90;;;;;;4997894;28;20198;-66
2023/09/02 06:14:23;;;;;;;3.10;1.67;;;12.20;99.90;;;;;;4985581;28;20198;-66
2023/09/02 06:16:51;;;;;;;2.90;2.28;;;11.90;99.90;;;;;;4997656;28;20237;-66
2023/09/02 06:19:19;;;;;;;2.30;2.10;;;11.90;99.90;;;;;;4984461;28;20198;-66
2023/09/02 06:21:46;;;;;;;4.28;2.45;;;12.00;99.90;;;;;;4995486;28;20774;-65
2023/09/02 06:24:13;;;;;;;4.40;2.22;;;12.20;99.90;;;;;;4959967;28;20211;-66
2023/09/02 06:26:40;;;;;;;2.45;2.20;;;12.20;99.90;;;;;;4992161;28;20652;-65
2023/09/02 06:29:07;;;;;;;3.03;2.47;;;12.20;99.90;;;;;;4995418;28;20202;-66
2023/09/02 06:31:33;;;;;;;3.67;2.42;;;12.40;99.90;;;;;;4981445;28;20198;-66
2023/09/02 06:34:00;;;;;;;3.38;3.08;;;12.50;99.90;;;;;;4987206;28;20702;-66
2023/09/02 06:36:28;;;;;;;4.35;2.70;;;12.60;99.90;;;;;;4992249;28;20659;-66
2023/09/02 06:38:55;;;;;;;3.42;2.70;;;12.60;99.90;;;;;;4992686;28;20221;-66
2023/09/02 06:41:22;;;;;;;3.20;2.60;;;12.70;99.90;;;;;;4956276;28;20692;-66
2023/09/02 06:43:50;;;;;;;2.40;1.83;;;12.90;99.90;;;;;;4991596;28;20214;-66
2023/09/02 06:46:20;;;;;;;4.35;2.38;;;12.90;99.90;;;;;;4978658;28;20241;-66
2023/09/02 06:48:47;;;;;;;2.88;2.60;;;12.90;99.90;;;;;;4984350;28;20286;-66
2023/09/02 06:51:15;;;;;;;3.60;2.45;;;13.10;99.90;;;;;;4973721;28;20226;-66
2023/09/02 06:53:44;;;;;;;3.40;2.70;;;13.20;99.90;;;;;;4982686;28;20341;-65
2023/09/02 06:56:12;;;;;;;4.00;3.20;;;13.30;99.90;;;;;;4956129;28;20785;-66
2023/09/02 06:58:40;;;;;;;3.42;2.90;;;13.40;99.90;;;;;;4988954;28;20550;-66
2023/09/02 07:01:07;;;;;;;5.95;3.53;;;13.50;99.90;;;;;;4983440;28;20222;-66
2023/09/02 07:03:34;;;;;;;4.88;3.40;;;13.60;99.90;;;;;;4949887;28;20237;-66
2023/09/02 07:06:06;;;;;;;4.18;3.33;;;13.60;99.90;;;;;;4984250;28;20256;-66
2023/09/02 07:08:33;;;;;;;6.05;3.50;;;13.60;99.90;;;;;;4981957;28;20249;-66
2023/09/02 07:11:01;;;;;;;9.98;3.45;;;13.80;99.90;;;;;;4951640;28;20210;-67
2023/09/02 07:13:28;;;;;;;4.85;3.20;;;13.70;99.90;;;;;;4991222;28;20947;-66
2023/09/02 07:15:59;;;;;;;4.63;3.20;;;13.90;99.90;;;;;;4983089;28;20249;-66
2023/09/02 07:18:26;;;;;;;3.47;3.17;;;13.90;99.90;;;;;;4975628;28;20241;-66
2023/09/02 07:20:57;;;;;;;5.38;2.90;;;14.00;99.90;;;;;;4975465;28;20340;-66
2023/09/02 07:23:23;;;;;;;3.53;2.90;;;14.00;99.90;;;;;;4993303;28;20845;-66
2023/09/02 07:25:50;;;;;;;3.55;3.17;;;14.10;99.90;;;;;;4954556;28;20518;-66
2023/09/02 07:28:18;;;;;;;4.43;3.30;;;14.10;99.90;;;;;;4988991;28;20264;-66
2023/09/02 07:30:45;;;;;;;7.88;3.50;;;15.60;99.90;;;;;;4984933;28;20205;-66
2023/09/02 07:33:12;;;;;;;4.93;3.30;;;14.30;99.90;;;;;;4977324;28;20214;-66
2023/09/02 07:35:39;;;;;;;6.07;3.30;;;14.40;99.90;;;;;;4983917;28;22039;-66
2023/09/02 07:38:06;;;;;;;3.97;3.20;;;14.40;99.90;;;;;;4988809;28;20313;-66
2023/09/02 07:40:33;;;;;;;4.45;3.35;;;14.50;99.90;;;;;;4987583;28;20202;-66
2023/09/02 07:43:02;;;;;;;5.18;3.45;;;14.60;99.90;;;;;;4959535;28;20474;-66
2023/09/02 07:45:31;;;;;;;5.18;3.10;;;14.80;99.90;;;;;;4990509;28;20608;-66
2023/09/02 07:47:57;;;;;;;4.40;3.10;;;14.70;99.90;;;;;;4975095;28;22661;-66
2023/09/02 07:50:24;;;;;;;4.25;3.08;;;14.80;99.90;;;;;;4975865;28;20237;-65
2023/09/02 07:52:51;;;;;;;3.50;2.78;;;14.90;99.90;;;;;;4966395;28;20248;-65
2023/09/02 07:55:18;;;;;;;2.72;2.33;;;14.80;99.90;;;;;;4989365;28;20213;-65
2023/09/02 07:57:45;;;;;;;8.00;3.53;;;14.90;99.90;;;;;;4953705;28;20567;-65
2023/09/02 08:00:12;;;;;;;7.82;3.10;;;14.90;99.90;;;;;;4985466;28;20233;-65
2023/09/02 08:02:40;;;;;;;5.00;2.70;;;14.90;99.90;;;;;;4954152;28;20328;-65
2023/09/02 08:05:08;;;;;;;6.82;2.80;;;15.00;99.90;;;;;;4970759;28;21067;-65
2023/09/02 08:07:35;;;;;;;4.00;3.13;;;15.10;99.90;;;;;;4949248;28;20233;-65
2023/09/02 08:10:02;;;;;;;4.30;3.20;;;15.10;99.90;;;;;;4972816;28;20232;-66
2023/09/02 08:12:29;;;;;;;3.58;2.78;;;15.10;99.90;;;;;;4991438;28;20224;-65
2023/09/02 08:14:56;;;;;;;3.25;2.40;;;;;;;;;;4958277;28;20226;-66
2023/09/02 08:17:23;;;;;;;3.25;2.90;;;16.40;99.90;;;;;;4984369;28;20221;-65
2023/09/02 08:19:51;;;;;;;2.90;2.50;;;15.10;99.90;;;;;;4975819;28;20229;-65
2023/09/02 08:22:18;;;;;;;3.90;2.70;;;15.30;99.90;;;;;;4987308;28;23430;-66
2023/09/02 08:24:45;;;;;;;3.50;3.00;;;15.40;99.90;;;;;;4998174;28;20222;-66
2023/09/02 08:27:12;;;;;;;3.20;2.30;;;15.40;99.90;;;;;;4998942;28;20259;-66
2023/09/02 08:29:38;;;;;;;2.92;2.65;;;15.40;99.90;;;;;;4966635;28;20679;-66
2023/09/02 08:32:05;;;;;;;6.22;2.85;;;15.50;99.90;;;;;;4999856;28;20688;-65
2023/09/02 08:34:32;;;;;;;3.38;2.65;;;15.50;99.90;;;;;;4991194;28;20408;-66
2023/09/02 08:37:00;;;;;;;4.75;2.40;;;15.60;99.90;;;;;;5003024;28;20233;-66
2023/09/02 08:39:27;;;;;;;3.83;2.17;;;15.80;99.90;;;;;;4991122;28;20225;-65
2023/09/02 08:41:54;;;;;;;4.28;1.92;;;15.80;99.90;;;;;;4990659;28;20210;-66
2023/09/02 08:44:26;;;;;;;4.90;2.17;;;15.80;99.90;;;;;;5002210;28;20544;-65
2023/09/02 08:46:55;;;;;;;3.53;2.20;;;15.80;99.90;;;;;;4956638;28;20717;-65
2023/09/02 08:49:23;;;;;;;4.05;2.38;;;15.90;99.90;;;;;;4999623;28;20285;-66
2023/09/02 08:51:50;;;;;;;3.47;2.38;;;16.00;99.90;;;;;;4987118;28;20210;-66
2023/09/02 08:54:20;;;;;;;5.75;2.63;;;16.00;99.90;;;;;;4984219;28;20202;-66
2023/09/02 08:56:47;;;;;;;5.32;2.85;;;16.10;99.90;;;;;;5000006;28;20199;-66
2023/09/02 08:59:15;;;;;;;4.35;2.63;;;16.20;99.90;;;;;;4997658;28;20656;-66
2023/09/02 09:01:43;;;;;;;4.50;2.72;;;16.20;99.90;;;;;;4963769;28;20206;-66
2023/09/02 09:04:11;;;;;;;6.03;2.42;;;16.30;99.90;;;;;;4989293;28;20265;-66
2023/09/02 09:06:38;;;;;;;4.45;2.63;;;15.10;99.90;;;;;;4986439;28;20214;-66
2023/09/02 09:09:09;;;;;;;4.15;2.55;;;16.30;99.90;;;;;;4984811;28;20234;-66
2023/09/02 09:11:41;;;;;;;5.10;2.92;;;16.50;99.90;;;;;;4997208;28;20194;-66
2023/09/02 09:14:11;;;;;;;5.30;2.85;;;16.50;99.90;;;;;;4996412;28;20202;-66
2023/09/02 09:16:40;;;;;;;4.65;2.63;;;16.50;99.90;;;;;;4997537;28;20209;-66
2023/09/02 09:19:07;;;;;;;2.60;2.40;;;16.50;99.90;;;;;;4962302;28;20848;-66
2023/09/02 09:21:33;;;;;;;4.95;2.72;;;16.60;99.90;;;;;;4985309;28;20360;-66
2023/09/02 09:24:00;;;;;;;4.93;2.88;;;16.60;99.90;;;;;;4985502;28;20198;-66
2023/09/02 09:26:28;;;;;;;4.50;2.90;;;16.70;99.90;;;;;;4998733;28;20230;-66
2023/09/02 09:28:58;;;;;;;7.55;3.08;;;16.50;99.90;;;;;;4997319;28;20202;-66
2023/09/02 09:31:26;;;;;;;7.35;3.22;;;16.70;99.90;;;;;;4998057;28;20423;-66
2023/09/02 09:33:54;;;;;;;8.30;3.70;;;16.80;99.90;;;;;;4963835;28;20712;-65
2023/09/02 09:36:22;;;;;;;5.20;3.30;;;16.90;99.90;;;;;;4984442;28;21006;-66
2023/09/02 09:38:49;;;;;;;7.53;3.58;;;17.00;99.90;;;;;;4999389;28;20226;-65
2023/09/02 09:41:16;;;;;;;5.25;2.88;;;17.10;99.90;;;;;;4980860;28;20202;-66
2023/09/02 09:43:43;;;;;;;5.43;3.25;;;17.10;99.90;;;;;;5000517;28;20222;-66
2023/09/02 09:46:15;;;;;;;7.68;3.70;;;17.10;99.90;;;;;;4995083;28;20194;-66
2023/09/02 09:48:51;;;;;;;7.30;4.82;;;17.10;99.90;;;;;;4964422;28;20222;-66
2023/09/02 09:51:23;;;;;;;7.80;4.50;;;17.20;99.90;;;;;;4984002;28;20958;-66
2023/09/02 09:53:50;;;;;;;6.53;4.15;;;17.30;99.90;;;;;;5001567;28;20198;-66
2023/09/02 09:56:17;;;;;;;9.60;4.88;;;17.40;99.90;;;;;;4983149;28;20203;-66
2023/09/02 09:58:44;;;;;;;8.00;4.95;;;17.30;99.90;;;;;;4998351;28;20194;-66
2023/09/02 10:01:20;;;;;;;6.15;4.70;;;17.30;99.90;;;;;;4993373;28;20210;-66
2023/09/02 10:03:46;;;;;;;7.05;4.53;;;17.10;99.90;;;;;;4965854;28;20213;-66
2023/09/02 10:06:13;;;;;;;5.95;3.63;;;17.00;99.90;;;;;;4988839;28;20856;-66
2023/09/02 10:08:50;;;;;;;5.80;4.32;;;17.00;99.90;;;;;;4998547;28;20263;-66
2023/09/02 10:11:22;;;;;;;7.93;4.68;;;17.10;99.90;;;;;;4980478;28;20886;-66
2023/09/02 10:13:51;;;;;;;6.22;3.90;;;17.10;99.90;;;;;;4998337;28;20755;-65
2023/09/02 10:16:19;;;;;;;8.95;4.72;;;17.20;99.90;;;;;;4990580;28;20415;-66
2023/09/02 10:18:48;;;;;;;8.05;5.00;;;17.10;99.90;;;;;;4997950;28;20203;-66
2023/09/02 10:21:16;;;;;;;7.10;4.85;;;17.10;99.90;;;;;;4945472;28;20714;-66
2023/09/02 10:23:47;;;;;;;9.55;4.68;;;17.10;99.90;;;;;;4997216;28;20545;-66
2023/09/02 10:26:20;;;;;;;7.43;5.03;;;17.20;99.90;;;;;;4979036;28;20719;-66
2023/09/02 10:28:50;;;;;;;8.27;4.78;;;17.30;99.90;;;;;;4997869;28;20737;-66
2023/09/02 10:31:22;;;;;;;7.10;4.88;;;17.50;99.90;;;;;;4979162;28;20202;-66
2023/09/02 10:33:59;;;;;;;6.72;4.95;;;17.60;99.90;;;;;;4999380;28;20201;-66
2023/09/02 10:36:29;;;;;;;7.28;5.05;;;17.60;99.90;;;;;;4958924;28;20420;-65
2023/09/02 10:39:01;;;;;;;6.38;4.45;;;17.60;99.90;;;;;;4985412;28;20202;-66
2023/09/02 10:41:30;;;;;;;8.15;4.35;;;17.70;99.90;;;;;;4981655;28;20418;-66
2023/09/02 10:43:57;;;;;;;9.50;5.30;;;17.90;99.90;;;;;;4999678;28;20213;-66
2023/09/02 10:46:27;;;;;;;7.45;4.95;;;18.10;99.90;;;;;;4994235;28;20501;-65
2023/09/02 10:48:54;;;;;;;6.88;4.43;;;18.10;99.90;;;;;;4994415;28;20230;-66
2023/09/02 10:51:22;;;;;;;12.43;5.10;;;18.20;99.90;;;;;;4958216;28;20744;-66
2023/09/02 10:54:02;;;;;;;7.30;4.55;;;18.20;99.90;;;;;;4985790;28;20249;-66
2023/09/02 10:56:30;;;;;;;7.90;4.50;;;18.30;99.90;;;;;;4996791;28;20709;-66
2023/09/02 10:58:58;;;;;;;7.50;4.78;;;18.40;99.90;;;;;;4984634;28;20798;-66
2023/09/02 11:01:29;;;;;;;4.70;3.83;;;18.40;99.90;;;;;;4996633;28;20285;-66
2023/09/02 11:03:56;;;;;;;5.78;3.75;;;18.40;99.90;;;;;;4998831;28;20289;-66
2023/09/02 11:06:23;;;;;;;6.70;3.97;;;18.40;99.90;;;;;;4960827;28;22052;-66
2023/09/02 11:08:51;;;;;;;5.90;4.00;;;18.40;99.90;;;;;;4998215;28;20230;-66
2023/09/02 11:11:19;;;;;;;5.72;3.92;;;18.30;99.90;;;;;;4979320;28;20221;-66
2023/09/02 11:14:21;;;;;;;6.25;3.25;;;18.20;99.90;;;;;;4987700;28;20198;-65
2023/09/02 11:17:21;;;;;;;5.07;3.63;;;18.30;99.90;;;;;;4999009;28;20840;-66
2023/09/02 11:20:03;;;;;;;8.38;3.00;;;18.40;99.90;;;;;;5000756;28;20233;-66
2023/09/02 11:22:50;;;;;;;3.83;2.38;;;18.40;99.90;;;;;;4959960;28;20994;-66
2023/09/02 11:25:37;;;;;;;3.33;2.70;;;18.50;99.90;;;;;;4981430;28;20428;-66
2023/09/02 11:28:06;;;;;;;4.20;2.88;;;19.00;99.90;;;;;;4991641;28;20224;-66
2023/09/02 11:30:35;;;;;;;7.95;3.33;;;18.80;99.90;;;;;;4988998;28;20214;-66
2023/09/02 11:33:02;;;;;;;4.82;3.10;;;19.00;99.90;;;;;;4994686;28;20198;-66
2023/09/02 11:35:32;;;;;;;5.40;3.50;;;19.00;99.90;;;;;;4993971;28;20518;-66
2023/09/02 11:37:59;;;;;;;3.78;3.03;;;19.00;99.90;;;;;;4959699;28;20210;-66
2023/09/02 11:40:27;;;;;;;8.98;4.25;;;19.00;99.90;;;;;;4995568;28;20455;-66
2023/09/02 11:42:55;;;;;;;6.60;4.05;;;19.10;99.90;;;;;;4984462;28;20203;-66
2023/09/02 11:45:23;;;;;;;6.22;3.95;;;19.10;99.90;;;;;;4977598;28;20302;-66
2023/09/02 11:47:52;;;;;;;7.70;3.33;;;19.20;99.90;;;;;;5004135;28;21253;-66
2023/09/02 11:50:20;;;;;;;8.00;3.70;;;19.10;99.90;;;;;;4998087;28;20197;-66
2023/09/02 11:52:48;;;;;;;6.50;3.50;;;19.10;99.90;;;;;;4963572;28;20208;-66
2023/09/02 11:55:17;;;;;;;5.18;3.80;;;19.10;99.90;;;;;;4998164;28;20990;-66
2023/09/02 11:57:44;;;;;;;3.72;3.20;;;19.00;99.90;;;;;;4995963;28;20202;-66
2023/09/02 12:00:16;;;;;;;5.65;3.88;;;19.00;99.90;;;;;;4992498;28;20197;-66
2023/09/02 12:02:43;;;;;;;6.10;3.70;;;19.00;99.90;;;;;;5006042;28;20197;-66
2023/09/02 12:05:09;;;;;;;4.45;3.67;;;19.00;99.90;;;;;;5001567;28;20196;-66
2023/09/02 12:07:38;;;;;;;4.65;3.30;;;19.10;99.90;;;;;;5007559;28;20229;-66
2023/09/02 12:10:10;;;;;;;5.53;3.13;;;19.00;99.90;;;;;;4966534;28;20237;-66
2023/09/02 12:12:41;;;;;;;3.67;3.10;;;19.10;99.90;;;;;;4996875;28;20217;-66
2023/09/02 12:15:11;;;;;;;3.92;2.80;;;19.40;99.90;;;;;;4994146;28;20545;-66
2023/09/02 12:17:39;;;;;;;6.20;3.15;;;19.20;99.90;;;;;;5001172;28;20202;-66
2023/09/02 12:20:07;;;;;;;4.78;2.95;;;19.30;99.90;;;;;;5005512;28;20201;-66
2023/09/02 12:22:35;;;;;;;2.78;2.55;;;19.30;99.90;;;;;;4998181;28;20635;-66
2023/09/02 12:25:16;;;;;;;4.57;2.70;;;19.40;99.90;;;;;;4964305;28;20727;-66
2023/09/02 12:27:43;;;;;;;5.15;2.78;;;19.50;99.90;;;;;;4995163;28;20218;-66
2023/09/02 12:30:11;;;;;;;5.85;2.97;;;19.70;99.90;;;;;;4993760;28;20951;-66
2023/09/02 12:32:37;;;;;;;4.78;2.83;;;19.60;99.90;;;;;;4990520;28;20209;-66
2023/09/02 12:35:09;;;;;;;6.13;3.47;;;19.70;99.90;;;;;;5000349;28;20202;-66
2023/09/02 12:37:36;;;;;;;3.65;2.75;;;19.60;99.90;;;;;;5002756;28;20214;-66
2023/09/02 12:40:13;;;;;;;5.63;3.30;;;19.50;99.90;;;;;;4965693;28;20205;-66
2023/09/02 12:42:40;;;;;;;6.00;2.90;;;19.50;99.90;;;;;;5006535;28;20206;-66
2023/09/02 12:45:09;;;;;;;4.40;3.33;;;19.60;99.90;;;;;;4984845;28;20207;-66
2023/09/02 12:47:37;;;;;;;8.63;4.38;;;19.60;99.90;;;;;;4989884;28;20225;-66
2023/09/02 12:50:05;;;;;;;4.20;3.05;;;19.80;99.90;;;;;;5004407;28;20210;-66
2023/09/02 12:52:33;;;;;;;7.85;3.55;;;20.00;99.90;;;;;;5001760;28;20226;-65
2023/09/02 12:55:01;;;;;;;6.20;3.38;;;19.70;99.90;;;;;;4967987;28;20206;-66
2023/09/02 12:57:31;;;;;;;7.57;3.60;;;19.70;99.90;;;;;;5001429;28;20462;-66